Time;durP1;ratioP1;P1;durP2;ratioP2;P2;SDS_P1;SDS_P2;PMS_P1;PMS_P2;Temp;Humidity;BMP_temperature;BMP_pressure;BME280_temperature;BME280_humidity;BME280_pressure;Samples;Min_cycle;Max_cycle;Signal;HPM_P1;HPM_P2
2022/03/04 00:00:11;;;;;;;28.45;9.05;;;;;;;-0.88;100.00;102125.53;5052798;28;20286;-76
2022/03/04 00:02:39;;;;;;;27.75;8.43;;;;;;;-0.81;100.00;102126.19;5069954;28;20064;-76
2022/03/04 00:05:05;;;;;;;188.07;21.23;;;;;;;-0.73;100.00;102138.09;5069395;28;20071;-76
2022/03/04 00:07:31;;;;;;;165.88;16.67;;;;;;;-0.87;100.00;102130.75;5053048;28;20273;-77
2022/03/04 00:09:56;;;;;;;41.45;10.77;;;;;;;-0.86;100.00;102132.44;5052557;28;20036;-76
2022/03/04 00:12:21;;;;;;;48.40;13.20;;;;;;;-0.80;100.00;102127.88;5070980;28;20028;-76
2022/03/04 00:14:47;;;;;;;38.63;10.77;;;;;;;-0.73;100.00;102130.22;5070512;28;20283;-76
2022/03/04 00:17:12;;;;;;;194.82;19.58;;;;;;;-0.75;100.00;102134.69;5053096;28;20796;-75
2022/03/04 00:19:38;;;;;;;191.75;16.42;;;;;;;-0.82;100.00;102134.94;5070401;28;20040;-76
2022/03/04 00:22:05;;;;;;;59.60;11.52;;;;;;;-0.83;100.00;102135.88;5070937;28;20077;-76
2022/03/04 00:24:30;;;;;;;74.85;13.00;;;;;;;-0.81;100.00;102136.66;5052462;28;20037;-75
2022/03/04 00:26:56;;;;;;;204.68;21.83;;;;;;;-0.98;100.00;102125.03;5052838;28;20501;-76
2022/03/04 00:29:21;;;;;;;79.00;11.80;;;;;;;-1.13;100.00;102129.00;5052468;28;20497;-76
2022/03/04 00:31:47;;;;;;;380.27;30.30;;;;;;;-1.33;100.00;102126.25;5053083;28;20086;-77
2022/03/04 00:34:12;;;;;;;115.93;12.75;;;;;;;-1.17;100.00;102121.31;5070438;28;20312;-75
2022/03/04 00:36:39;;;;;;;52.75;10.40;;;;;;;-0.93;100.00;102148.47;5052734;28;20020;-76
2022/03/04 00:39:07;;;;;;;102.38;14.93;;;;;;;-1.00;100.00;102132.09;5070330;28;20052;-76
2022/03/04 00:41:33;;;;;;;254.77;26.55;;;;;;;-1.00;100.00;102142.56;5052760;28;20423;-76
2022/03/04 00:43:58;;;;;;;81.65;13.20;;;;;;;-1.04;100.00;102142.72;5070508;28;20029;-76
2022/03/04 00:46:24;;;;;;;158.93;13.75;;;;;;;-1.08;100.00;102134.09;5052548;28;20040;-75
2022/03/04 00:48:49;;;;;;;111.78;13.38;;;;;;;-1.22;100.00;102128.47;5070304;28;20033;-76
2022/03/04 00:51:15;;;;;;;133.30;16.15;;;;;;;-1.10;100.00;102133.28;5052409;28;20482;-75
2022/03/04 00:53:41;;;;;;;39.63;10.00;;;;;;;-1.10;100.00;102136.78;5073795;28;20078;-76
2022/03/04 00:56:07;;;;;;;;;;;;;;;-1.05;100.00;102131.38;5040381;28;20032;-76
2022/03/04 00:58:34;;;;;;;545.42;37.33;;;;;;;-1.16;100.00;102134.38;5056292;28;19913;-76
2022/03/04 01:00:59;;;;;;;499.23;32.63;;;;;;;-1.39;100.00;102127.28;5074377;28;20497;-76
2022/03/04 01:03:25;;;;;;;715.53;46.92;;;;;;;-1.58;100.00;102137.53;5056251;28;20107;-75
2022/03/04 01:05:51;;;;;;;76.38;13.50;;;;;;;-1.43;100.00;102141.41;5056191;28;20040;-75
2022/03/04 01:08:17;;;;;;;272.35;23.92;;;;;;;-1.28;100.00;102145.28;5056265;28;20020;-75
2022/03/04 01:10:42;;;;;;;288.77;25.88;;;;;;;-1.20;100.00;102143.25;5073931;28;20039;-75
2022/03/04 01:13:09;;;;;;;346.13;28.08;;;;;;;-1.24;100.00;102156.50;5056147;28;20021;-76
2022/03/04 01:15:35;;;;;;;265.25;24.33;;;;;;;-1.33;100.00;102140.19;5073895;28;20038;-76
2022/03/04 01:18:00;;;;;;;166.95;20.30;;;;;;;-1.19;100.00;102144.13;5056192;28;20409;-76
2022/03/04 01:20:26;;;;;;;174.43;20.95;;;;;;;-1.27;100.00;102144.38;5055856;28;20041;-76
2022/03/04 01:22:51;;;;;;;176.95;19.13;;;;;;;-1.40;100.00;102146.56;5056067;28;20370;-76
2022/03/04 01:25:16;;;;;;;64.10;10.00;;;;;;;-1.45;100.00;102148.47;5055962;28;20166;-77
2022/03/04 01:27:42;;;;;;;398.33;28.08;;;;;;;-1.54;100.00;102140.91;5073987;28;20259;-76
2022/03/04 01:30:09;;;;;;;33.45;9.07;;;;;;;-1.47;100.00;102154.69;5055819;28;20040;-76
2022/03/04 01:32:35;;;;;;;197.15;18.58;;;;;;;-1.41;100.00;102152.69;5055954;28;20116;-77
2022/03/04 01:35:00;;;;;;;;;;;;;;;-1.28;100.00;102166.25;5056279;28;20040;-75
2022/03/04 01:37:26;;;;;;;263.52;20.23;;;;;;;-1.23;100.00;102164.31;5055639;28;19913;-76
2022/03/04 01:39:51;;;;;;;515.50;34.33;;;;;;;-1.28;100.00;102167.09;5055570;28;20551;-76
2022/03/04 01:42:17;;;;;;;130.00;16.13;;;;;;;-1.27;100.00;102154.84;5055698;28;20025;-76
2022/03/04 01:44:43;;;;;;;97.53;14.68;;;;;;;-1.34;100.00;102154.19;5055764;28;20497;-76
2022/03/04 01:47:09;;;;;;;177.00;18.00;;;;;;;-1.39;100.00;102153.50;5055436;28;20093;-76
2022/03/04 01:49:35;;;;;;;50.10;11.55;;;;;;;-1.53;100.00;102148.72;5055480;28;20037;-76
2022/03/04 01:52:01;;;;;;;452.67;32.88;;;;;;;-1.61;100.00;102139.41;5055539;28;20024;-75
2022/03/04 01:54:27;;;;;;;;;;;;;;;-1.79;100.00;102149.56;5056043;28;20039;-75
2022/03/04 01:56:52;;;;;;;222.88;19.15;;;;;;;-1.97;100.00;102150.13;5055431;28;19908;-75
2022/03/04 01:59:18;;;;;;;380.60;26.30;;;;;;;-1.98;100.00;102158.91;5055399;28;20032;-76
2022/03/04 02:01:43;;;;;;;388.92;31.45;;;;;;;-2.18;100.00;102152.50;5055576;28;20058;-75
2022/03/04 02:04:09;;;;;;;141.90;17.00;;;;;;;-1.95;100.00;102167.50;5054475;28;20500;-76
2022/03/04 02:06:34;;;;;;;150.95;14.27;;;;;;;-1.88;100.00;102172.56;5073351;28;20028;-76
2022/03/04 02:09:00;;;;;;;197.10;18.02;;;;;;;-2.05;100.00;102173.06;5055247;28;20054;-76
2022/03/04 02:11:25;;;;;;;126.57;13.48;;;;;;;-2.21;100.00;102162.19;5055346;28;20024;-75
2022/03/04 02:13:51;;;;;;;579.83;38.28;;;;;;;-2.15;100.00;102165.50;5055057;28;20048;-76
2022/03/04 02:16:26;;;;;;;87.15;12.30;;;;;;;-2.03;100.00;102171.28;5055333;28;20029;-76
2022/03/04 02:18:52;;;;;;;72.95;11.32;;;;;;;-1.92;100.00;102183.13;5054968;28;20519;-76
2022/03/04 02:21:20;;;;;;;237.75;28.48;;;;;;;-1.96;100.00;102184.13;5055193;28;20074;-76
2022/03/04 02:23:46;;;;;;;197.88;20.17;;;;;;;-1.92;100.00;102190.09;5054976;28;20044;-76
2022/03/04 02:26:12;;;;;;;281.60;23.92;;;;;;;-1.90;100.00;102193.53;5073180;28;20029;-76
2022/03/04 02:28:37;;;;;;;99.65;12.73;;;;;;;-1.93;100.00;102186.63;5065278;28;20120;-76
2022/03/04 02:31:03;;;;;;;317.48;27.75;;;;;;;-1.83;100.00;102188.97;5055004;28;20033;-75
2022/03/04 02:33:28;;;;;;;553.65;39.40;;;;;;;-2.15;100.00;102167.25;5054872;28;20067;-76
2022/03/04 02:35:54;;;;;;;258.45;24.05;;;;;;;-2.29;100.00;102166.81;5055077;28;20028;-76
2022/03/04 02:38:21;;;;;;;193.45;17.70;;;;;;;-2.37;100.00;102177.47;5054856;28;20029;-76
2022/03/04 02:40:46;;;;;;;478.85;43.95;;;;;;;-2.29;100.00;102175.53;5054860;28;20381;-77
2022/03/04 02:43:12;;;;;;;57.83;11.40;;;;;;;-2.12;100.00;102172.41;5054812;28;20043;-75
2022/03/04 02:45:37;;;;;;;643.42;52.50;;;;;;;-2.17;100.00;102180.38;5072611;28;20393;-76
2022/03/04 02:48:03;;;;;;;236.00;27.67;;;;;;;-2.10;100.00;102181.06;5054894;28;20033;-76
2022/03/04 02:50:28;;;;;;;249.77;24.33;;;;;;;-2.02;100.00;102170.34;5054354;28;20070;-75
2022/03/04 02:52:54;;;;;;;487.38;37.03;;;;;;;-2.44;100.00;102175.94;5054748;28;20047;-76
2022/03/04 02:55:19;;;;;;;452.20;31.70;;;;;;;-2.59;100.00;102177.25;5054351;28;20025;-76
2022/03/04 02:57:46;;;;;;;104.07;15.57;;;;;;;-2.42;100.00;102188.06;5054612;28;20033;-77
2022/03/04 03:00:14;;;;;;;387.67;29.35;;;;;;;-2.58;100.00;102189.41;5054254;28;20107;-76
2022/03/04 03:02:40;;;;;;;245.55;23.17;;;;;;;-2.54;100.00;102183.19;5054492;28;20037;-76
2022/03/04 03:05:07;;;;;;;443.90;35.45;;;;;;;-2.67;100.00;102185.31;5054124;28;20177;-75
2022/03/04 03:07:32;;;;;;;533.28;38.08;;;;;;;-2.84;100.00;102184.91;5054390;28;20036;-76
2022/03/04 03:09:58;;;;;;;315.27;24.42;;;;;;;-2.73;100.00;102190.69;5054131;28;20378;-76
2022/03/04 03:12:23;;;;;;;305.23;26.30;;;;;;;-2.66;100.00;102196.63;5054296;28;20124;-76
2022/03/04 03:14:49;;;;;;;438.98;29.70;;;;;;;-2.85;100.00;102199.72;5053925;28;20493;-76
2022/03/04 03:17:14;;;;;;;391.83;29.38;;;;;;;-2.83;100.00;102181.41;5053370;28;20037;-76
2022/03/04 03:19:39;;;;;;;225.57;21.13;;;;;;;-2.82;100.00;102197.03;5053906;28;20040;-76
2022/03/04 03:22:05;;;;;;;302.75;24.98;;;;;;;-3.14;100.00;102190.03;5072056;28;20397;-75
2022/03/04 03:24:30;;;;;;;170.80;17.63;;;;;;;-3.17;100.00;102189.25;5053890;28;20028;-76
2022/03/04 03:26:57;;;;;;;88.65;16.77;;;;;;;-3.00;100.00;102198.38;5054041;28;20032;-76
2022/03/04 03:29:22;;;;;;;386.50;28.77;;;;;;;-3.16;100.00;102207.50;5071615;28;20664;-76
2022/03/04 03:31:48;;;;;;;105.70;12.60;;;;;;;-2.90;100.00;102205.97;5053951;28;20075;-76
2022/03/04 03:34:14;;;;;;;89.75;12.60;;;;;;;-2.79;100.00;102209.16;5053768;28;20393;-76
2022/03/04 03:36:39;;;;;;;;;;;;;;;-2.73;100.00;102203.78;5054088;28;20036;-76
2022/03/04 03:39:05;;;;;;;206.60;24.00;;;;;;;-2.79;100.00;102207.41;5053650;28;20364;-75
2022/03/04 03:41:30;;;;;;;164.40;15.85;;;;;;;-3.00;100.00;102214.06;5053731;28;20044;-76
2022/03/04 03:43:55;;;;;;;277.98;23.73;;;;;;;-3.20;100.00;102200.66;5053684;28;20075;-75
2022/03/04 03:46:21;;;;;;;163.85;16.77;;;;;;;-3.17;100.00;102211.00;5053589;28;20037;-76
2022/03/04 03:48:46;;;;;;;108.68;16.63;;;;;;;-3.19;100.00;102204.97;5053574;28;20477;-76
2022/03/04 03:51:11;;;;;;;91.00;12.65;;;;;;;-2.97;100.00;102200.91;5052746;28;20123;-76
2022/03/04 03:53:38;;;;;;;139.85;18.98;;;;;;;-2.93;100.00;102198.22;5036932;28;20473;-76
2022/03/04 03:56:04;;;;;;;474.35;30.98;;;;;;;-3.00;100.00;102198.38;5053534;28;20396;-76
2022/03/04 03:58:29;;;;;;;201.23;19.95;;;;;;;-3.12;100.00;102205.66;5071174;28;20067;-76
2022/03/04 04:00:55;;;;;;;140.40;16.90;;;;;;;-3.05;100.00;102213.31;5071067;28;20035;-76
2022/03/04 04:03:20;;;;;;;119.57;12.57;;;;;;;-2.90;100.00;102224.25;5049608;22;20558;-73
2022/03/04 04:05:46;;;;;;;150.13;17.83;;;;;;;-2.87;100.00;102232.03;5069510;28;20049;-73
2022/03/04 04:08:11;;;;;;;235.38;21.63;;;;;;;-2.85;100.00;102222.41;5053309;28;20119;-73
2022/03/04 04:10:37;;;;;;;71.53;12.50;;;;;;;-2.77;100.00;102228.28;5070955;28;20428;-71
2022/03/04 04:13:02;;;;;;;152.95;14.85;;;;;;;-2.79;100.00;102232.69;5053004;28;20040;-73
2022/03/04 04:15:28;;;;;;;90.90;15.60;;;;;;;-2.89;100.00;102226.00;5053010;28;20456;-73
2022/03/04 04:17:54;;;;;;;231.50;17.42;;;;;;;-3.09;100.00;102218.66;5069518;28;20469;-73
2022/03/04 04:20:19;;;;;;;177.25;16.90;;;;;;;-3.15;100.00;102213.59;5070823;28;20032;-75
2022/03/04 04:22:44;;;;;;;188.52;19.35;;;;;;;-3.09;100.00;102219.53;5053025;28;20141;-72
2022/03/04 04:25:10;;;;;;;45.75;10.93;;;;;;;-2.87;100.00;102226.81;5052978;28;20029;-73
2022/03/04 04:27:35;;;;;;;109.18;14.88;;;;;;;-3.01;100.00;102214.94;5052500;28;20033;-73
2022/03/04 04:30:01;;;;;;;181.93;17.52;;;;;;;-3.04;100.00;102220.25;5052657;28;20043;-73
2022/03/04 04:32:26;;;;;;;311.02;24.98;;;;;;;-3.19;100.00;102210.19;5052853;28;20028;-73
2022/03/04 04:34:51;;;;;;;106.57;16.65;;;;;;;-3.07;100.00;102216.84;5070708;28;20067;-73
2022/03/04 04:37:17;;;;;;;282.63;23.92;;;;;;;-3.31;100.00;102207.88;5070716;28;20082;-73
2022/03/04 04:39:42;;;;;;;264.33;21.52;;;;;;;-3.42;100.00;102201.19;5069647;28;20036;-72
2022/03/04 04:42:08;;;;;;;118.22;12.85;;;;;;;-3.29;100.00;102211.31;5070231;28;20110;-73
2022/03/04 04:44:33;;;;;;;53.33;10.55;;;;;;;-3.13;100.00;102217.03;5066924;28;20059;-72
2022/03/04 04:46:58;;;;;;;199.70;17.63;;;;;;;-3.23;100.00;102216.38;5066016;28;20021;-72
2022/03/04 04:49:25;;;;;;;84.03;13.35;;;;;;;-3.46;100.00;102217.81;5066992;28;20032;-73
2022/03/04 04:51:51;;;;;;;49.15;10.02;;;;;;;-3.37;100.00;102202.78;5059933;28;20029;-73
2022/03/04 04:54:16;;;;;;;210.18;19.02;;;;;;;-3.55;100.00;102214.56;5051977;28;20033;-73
2022/03/04 04:56:41;;;;;;;284.90;20.50;;;;;;;-3.69;100.00;102217.50;5049009;28;20033;-72
2022/03/04 04:59:07;;;;;;;74.72;10.57;;;;;;;-3.68;100.00;102216.59;5048783;28;20033;-72
2022/03/04 05:01:32;;;;;;;217.90;21.50;;;;;;;-3.79;100.00;102226.41;5048965;28;20036;-75
2022/03/04 05:03:58;;;;;;;244.13;22.60;;;;;;;-3.89;100.00;102226.59;5049631;28;20444;-73
2022/03/04 05:06:23;;;;;;;110.20;13.35;;;;;;;-3.79;100.00;102229.00;5049114;28;20307;-73
2022/03/04 05:08:49;;;;;;;176.95;17.25;;;;;;;-3.65;100.00;102234.81;5050207;28;20051;-73
2022/03/04 05:11:14;;;;;;;337.42;27.80;;;;;;;-3.72;100.00;102238.41;5050162;28;20044;-74
2022/03/04 05:13:40;;;;;;;197.35;17.27;;;;;;;-4.27;100.00;102235.25;5049817;28;20035;-72
2022/03/04 05:16:05;;;;;;;229.45;21.08;;;;;;;-4.19;100.00;102242.91;5032219;28;20437;-73
2022/03/04 05:18:31;;;;;;;;;;;;;;;-4.26;100.00;102243.03;5049889;28;20121;-74
2022/03/04 05:20:56;;;;;;;140.30;14.60;;;;;;;-4.19;100.00;102235.97;5049016;28;20278;-74
2022/03/04 05:26:06;;;;;;;48.30;10.88;;;;;;;-4.01;100.00;102252.97;5050090;28;20036;-72
2022/03/04 05:28:31;;;;;;;274.60;23.05;;;;;;;-4.37;100.00;102246.75;5048345;28;20455;-72
2022/03/04 05:30:57;;;;;;;31.55;8.30;;;;;;;-4.13;100.00;102250.63;5048652;28;20041;-74
2022/03/04 05:33:22;;;;;;;30.42;7.90;;;;;;;-3.89;100.00;102251.84;5048665;28;20272;-73
2022/03/04 05:35:48;;;;;;;47.95;7.78;;;;;;;-3.83;100.00;102262.16;5048412;28;20040;-73
2022/03/04 05:38:13;;;;;;;147.60;12.98;;;;;;;-4.11;100.00;102264.50;5049784;28;20024;-73
2022/03/04 05:40:38;;;;;;;;;;;;;;;-4.23;100.00;102264.75;5034800;28;20033;-72
2022/03/04 05:43:04;;;;;;;159.77;13.13;;;;;;;-4.20;100.00;102262.06;5068839;28;19916;-73
2022/03/04 05:45:29;;;;;;;58.10;9.98;;;;;;;-4.10;100.00;102267.06;5052814;28;20405;-74
2022/03/04 05:47:54;;;;;;;172.95;18.38;;;;;;;-4.45;100.00;102267.75;5052106;28;20288;-72
2022/03/04 05:50:20;;;;;;;73.18;8.68;;;;;;;-4.63;100.00;102265.50;5034844;28;20032;-73
2022/03/04 05:52:45;;;;;;;34.15;7.80;;;;;;;-4.46;100.00;102263.44;5053505;28;20036;-72
2022/03/04 05:55:10;;;;;;;186.20;20.48;;;;;;;-4.38;100.00;102264.13;5051521;28;20036;-72
2022/03/04 05:57:36;;;;;;;335.85;32.53;;;;;;;-4.52;100.00;102266.13;5051793;28;20017;-73
2022/03/04 06:00:01;;;;;;;;;;;;;;;-4.32;100.00;102274.44;5052980;28;20511;-73
2022/03/04 06:02:28;;;;;;;95.30;13.10;;;;;;;-4.35;100.00;102281.50;5053284;28;19908;-72
2022/03/04 06:04:54;;;;;;;76.85;10.57;;;;;;;-4.30;100.00;102290.94;5051636;28;20178;-73
2022/03/04 06:07:19;;;;;;;68.55;11.07;;;;;;;-4.13;100.00;102293.19;5051953;28;20116;-73
2022/03/04 06:09:44;;;;;;;28.27;9.98;;;;;;;-4.00;100.00;102299.06;5034297;28;20037;-73
2022/03/04 06:12:10;;;;;;;26.63;8.65;;;;;;;-3.98;100.00;102307.72;5061655;28;20043;-72
2022/03/04 06:14:35;;;;;;;;;;;;;;;-4.01;100.00;102312.97;5054516;28;20036;-73
2022/03/04 06:17:00;;;;;;;18.35;6.88;;;;;;;-3.92;100.00;102317.16;5068003;28;19913;-73
2022/03/04 06:19:26;;;;;;;22.20;8.43;;;;;;;-3.73;100.00;102315.88;5068692;28;20162;-73
2022/03/04 06:21:51;;;;;;;17.25;6.97;;;;;;;-3.64;100.00;102314.81;5072746;28;20024;-72
2022/03/04 06:24:17;;;;;;;19.83;6.93;;;;;;;-3.66;100.00;102314.84;5054645;28;20032;-73
2022/03/04 06:26:42;;;;;;;18.80;6.45;;;;;;;-3.79;100.00;102325.56;5054713;28;20502;-72
2022/03/04 06:29:08;;;;;;;21.77;6.07;;;;;;;-3.70;100.00;102320.16;5054515;28;20029;-73
2022/03/04 06:31:33;;;;;;;31.63;7.70;;;;;;;-3.61;100.00;102317.34;5054653;28;20467;-73
2022/03/04 06:33:59;;;;;;;19.20;6.82;;;;;;;-3.49;100.00;102314.50;5071309;28;20029;-72
2022/03/04 06:36:24;;;;;;;35.15;7.85;;;;;;;-3.55;100.00;102319.00;5054618;28;20036;-72
2022/03/04 06:38:50;;;;;;;14.43;5.40;;;;;;;-3.64;100.00;102312.22;5054295;28;20036;-72
2022/03/04 06:41:16;;;;;;;16.13;5.97;;;;;;;-3.49;100.00;102313.63;5072310;28;20033;-73
2022/03/04 06:43:42;;;;;;;17.00;5.85;;;;;;;-3.43;100.00;102311.75;5037815;28;20028;-74
2022/03/04 06:46:09;;;;;;;29.35;6.75;;;;;;;-3.44;100.00;102307.41;5053407;28;20082;-73
2022/03/04 06:48:34;;;;;;;32.60;7.45;;;;;;;-3.54;100.00;102298.06;5054302;28;20078;-72
2022/03/04 06:51:01;;;;;;;23.17;7.20;;;;;;;-3.42;100.00;102294.31;5071873;28;20419;-73
2022/03/04 06:53:26;;;;;;;26.55;7.78;;;;;;;-3.65;100.00;102284.41;5037733;28;20130;-73
2022/03/04 06:55:52;;;;;;;83.93;9.77;;;;;;;-4.07;100.00;102264.41;5054214;28;20071;-73
2022/03/04 06:58:18;;;;;;;173.10;14.35;;;;;;;-3.98;100.00;102271.19;5053831;28;20043;-74
2022/03/04 07:00:44;;;;;;;43.97;7.90;;;;;;;-3.87;100.00;102268.31;5071801;28;20079;-73
2022/03/04 07:03:10;;;;;;;39.55;8.77;;;;;;;-3.76;100.00;102263.75;5054011;28;20064;-72
2022/03/04 07:05:37;;;;;;;19.65;6.35;;;;;;;-3.52;100.00;102274.53;5056773;28;20433;-72
2022/03/04 07:08:03;;;;;;;16.85;5.63;;;;;;;-3.38;100.00;102274.22;5070359;28;20112;-73
2022/03/04 07:10:29;;;;;;;64.10;8.13;;;;;;;-3.37;100.00;102265.47;5071695;28;20036;-73
2022/03/04 07:12:54;;;;;;;170.73;16.30;;;;;;;-3.52;100.00;102267.56;5053740;28;20028;-73
2022/03/04 07:15:20;;;;;;;151.57;15.70;;;;;;;-4.06;100.00;102245.22;5053746;28;20266;-72
2022/03/04 07:17:46;;;;;;;21.02;6.65;;;;;;;-3.82;100.00;102251.69;5053815;28;20025;-72
2022/03/04 07:20:12;;;;;;;19.10;6.82;;;;;;;-3.49;100.00;102257.06;5052835;28;20040;-72
2022/03/04 07:22:38;;;;;;;32.20;6.70;;;;;;;-3.66;100.00;102259.16;5069961;28;20036;-72
2022/03/04 07:25:05;;;;;;;19.90;6.40;;;;;;;-3.27;100.00;102267.00;5071408;28;20036;-72
2022/03/04 07:27:33;;;;;;;283.67;22.45;;;;;;;-3.99;100.00;102253.78;5070906;28;20370;-73
2022/03/04 07:30:00;;;;;;;133.15;12.15;;;;;;;-4.25;100.00;102254.34;5040932;28;22110;-72
2022/03/04 07:32:26;;;;;;;;;;;;;;;-4.03;100.00;102257.34;5071774;28;20077;-72
2022/03/04 07:34:51;;;;;;;22.98;8.27;;;;;;;-3.94;100.00;102257.16;5069783;28;19916;-73
2022/03/04 07:37:17;;;;;;;25.23;8.88;;;;;;;-3.56;100.00;102265.03;5052099;28;20074;-72
2022/03/04 07:39:43;;;;;;;24.67;7.75;;;;;;;-3.23;100.00;102279.06;5069080;28;20037;-74
2022/03/04 07:42:08;;;;;;;25.00;7.25;;;;;;;-3.09;100.00;102282.25;5069580;28;20101;-72
2022/03/04 07:44:36;;;;;;;51.03;8.88;;;;;;;-3.15;100.00;102279.75;5052945;28;20106;-73
2022/03/04 07:47:01;;;;;;;14.93;5.80;;;;;;;-2.94;100.00;102285.38;5070725;28;20469;-74
2022/03/04 07:49:26;;;;;;;19.60;6.25;;;;;;;-2.66;100.00;102291.59;5070489;28;20106;-72
2022/03/04 07:51:52;;;;;;;55.80;8.70;;;;;;;-2.60;100.00;102285.34;5069837;28;20103;-72
2022/03/04 07:54:18;;;;;;;25.17;7.65;;;;;;;-2.47;100.00;102280.66;5053024;28;20503;-74
2022/03/04 07:56:44;;;;;;;29.75;7.72;;;;;;;-2.26;100.00;102281.84;5052730;28;20024;-73
2022/03/04 07:59:09;;;;;;;109.88;12.52;;;;;;;-2.30;100.00;102272.34;5069208;28;20028;-73
2022/03/04 08:01:35;;;;;;;32.25;8.30;;;;;;;-2.34;100.00;102263.75;5069245;28;20480;-72
2022/03/04 08:04:00;;;;;;;126.68;10.73;;;;;;;-2.18;100.00;102266.78;5052237;28;20047;-72
2022/03/04 08:06:25;;;;;;;144.52;12.65;;;;;;;-2.18;100.00;102256.31;5052977;28;20032;-72
2022/03/04 08:08:51;;;;;;;62.58;10.10;;;;;;;-2.02;100.00;102267.19;5070521;28;20123;-72
2022/03/04 08:11:16;;;;;;;126.25;12.25;;;;;;;-1.97;100.00;102257.44;5069434;28;20103;-74
2022/03/04 08:13:42;;;;;;;60.03;8.88;;;;;;;-2.33;100.00;102247.13;5069130;28;20044;-73
2022/03/04 08:16:08;;;;;;;42.40;6.70;;;;;;;-2.64;100.00;102247.97;5070799;28;20089;-73
2022/03/04 08:18:34;;;;;;;59.90;7.47;;;;;;;-2.15;100.00;102257.09;5069155;28;20051;-73
2022/03/04 08:20:59;;;;;;;22.15;7.20;;;;;;;-1.95;100.00;102248.63;5069326;28;20029;-73
2022/03/04 08:23:25;;;;;;;121.53;10.38;;;;;;;-1.80;100.00;102247.34;5070517;28;20051;-74
2022/03/04 08:25:50;;;;;;;;;;;;;;;-1.74;100.00;102247.16;5071122;28;20036;-73
2022/03/04 08:28:17;;;;;;;132.63;13.25;;;;;;;-1.92;100.00;102243.34;5070584;28;19916;-73
2022/03/04 08:30:43;;;;;;;100.63;11.77;;;;;;;-1.77;100.00;102239.38;5070049;28;20366;-74
2022/03/04 08:33:08;;;;;;;65.95;10.07;;;;;;;-1.54;100.00;102243.06;5052779;28;20036;-73
2022/03/04 08:35:34;;;;;;;12.90;5.88;;;;;;;-1.18;100.00;102251.50;5068984;28;20024;-72
2022/03/04 08:38:00;;;;;;;18.80;6.95;;;;;;;-0.86;100.00;102245.19;5070126;28;20104;-73
2022/03/04 08:40:26;;;;;;;157.80;12.75;;;;;;;-0.81;100.00;102249.44;5070050;28;20059;-73
2022/03/04 08:42:51;;;;;;;45.67;8.02;;;;;;;-1.00;100.00;102236.94;5070652;28;20473;-73
2022/03/04 08:45:17;;;;;;;29.35;7.22;;;;;;;-0.82;100.00;102235.47;5068937;28;20037;-73
2022/03/04 08:47:43;;;;;;;128.90;10.05;;;;;;;-0.69;100.00;102238.50;5070566;28;20024;-73
2022/03/04 08:50:12;;;;;;;22.40;7.47;;;;;;;-0.98;100.00;102232.50;5069211;28;20052;-73
2022/03/04 08:52:37;;;;;;;71.57;8.55;;;;;;;-0.80;100.00;102235.41;5070206;28;20500;-74
2022/03/04 08:55:05;;;;;;;21.77;5.63;;;;;;;-0.79;100.00;102234.50;5052072;28;20032;-72
2022/03/04 08:57:31;;;;;;;71.38;9.65;;;;;;;-1.15;100.00;102232.19;5069234;28;20366;-72
2022/03/04 08:59:57;;;;;;;37.70;7.38;;;;;;;-1.13;100.00;102223.38;5068782;28;20111;-73
2022/03/04 09:02:22;;;;;;;44.83;7.78;;;;;;;-0.93;100.00;102230.59;5070526;28;20090;-73
2022/03/04 09:04:47;;;;;;;18.58;6.95;;;;;;;-0.55;100.00;102233.63;5068822;28;20029;-74
2022/03/04 09:07:13;;;;;;;58.27;7.13;;;;;;;-0.40;100.00;102226.13;5052350;28;20425;-72
2022/03/04 09:09:38;;;;;;;22.70;6.00;;;;;;;-0.41;100.00;102232.31;5068705;28;20047;-74
2022/03/04 09:12:05;;;;;;;20.00;7.00;;;;;;;-0.11;100.00;102228.53;5069146;28;20028;-72
2022/03/04 09:14:31;;;;;;;22.50;6.57;;;;;;;0.02;100.00;102222.81;5073175;28;20032;-73
2022/03/04 09:16:56;;;;;;;20.40;6.73;;;;;;;-0.07;100.00;102229.25;5073932;28;20090;-74
2022/03/04 09:19:21;;;;;;;16.42;6.35;;;;;;;-0.18;100.00;102227.06;5073850;28;20029;-72
2022/03/04 09:21:47;;;;;;;29.40;6.72;;;;;;;-0.57;100.00;102217.09;5055978;28;20034;-72
2022/03/04 09:24:14;;;;;;;13.35;5.45;;;;;;;-0.20;100.00;102221.00;5054436;28;20497;-72
2022/03/04 09:26:39;;;;;;;;;;;;;;;0.02;100.00;102228.06;5056320;28;20078;-73
2022/03/04 09:29:05;;;;;;;23.05;6.78;;;;;;;0.20;100.00;102224.75;5073557;28;19912;-72
2022/03/04 09:31:32;;;;;;;21.83;6.32;;;;;;;0.43;100.00;102228.25;5073839;28;20028;-73
2022/03/04 09:33:57;;;;;;;18.83;6.78;;;;;;;0.81;100.00;102226.69;5073585;28;20071;-73
2022/03/04 09:36:23;;;;;;;17.35;7.50;;;;;;;1.18;100.00;102233.91;5072367;28;20063;-72
2022/03/04 09:38:48;;;;;;;12.63;5.33;;;;;;;1.42;100.00;102228.50;5072117;28;20032;-72
2022/03/04 09:41:14;;;;;;;10.90;5.60;;;;;;;1.26;100.00;102213.41;5072156;28;20082;-73
2022/03/04 09:43:40;;;;;;;10.07;4.63;;;;;;;1.71;100.00;102224.59;5073281;28;20378;-73
2022/03/04 09:46:06;;;;;;;13.95;5.80;;;;;;;2.00;100.00;102220.63;5072364;28;20579;-73
2022/03/04 09:48:33;;;;;;;;;;;;;;;1.45;100.00;102205.53;5072496;28;20097;-73
2022/03/04 09:50:59;;;;;;;12.45;4.85;;;;;;;1.84;100.00;102206.44;5073297;28;19954;-73
2022/03/04 09:53:26;;;;;;;11.73;5.40;;;;;;;1.45;100.00;102200.28;5072606;28;20036;-72
2022/03/04 09:55:52;;;;;;;15.98;5.97;;;;;;;1.95;100.00;102206.81;5071960;28;20557;-73
2022/03/04 09:58:19;;;;;;;12.35;5.30;;;;;;;2.15;100.00;102205.84;5055192;28;20032;-73
2022/03/04 10:00:45;;;;;;;13.43;5.43;;;;;;;2.58;100.00;102208.25;5072926;28;20078;-72
2022/03/04 10:03:30;;;;;;;13.32;5.28;;;;;;;2.71;100.00;102188.22;5073186;28;20162;-73
2022/03/04 10:05:58;;;;;;;9.65;4.75;;;;;;;2.43;100.00;102175.56;5100275;22;20401;-85
2022/03/04 10:08:24;;;;;;;12.55;4.28;;;;;;;2.23;100.00;102166.84;5078318;28;20077;-83
2022/03/04 10:10:52;;;;;;;8.52;4.40;;;;;;;2.10;100.00;102163.91;5056406;28;20523;-84
2022/03/04 10:13:18;;;;;;;10.02;5.18;;;;;;;1.57;100.00;102163.78;5056558;28;20054;-84
2022/03/04 10:15:54;;;;;;;16.10;6.63;;;;;;;1.58;100.00;102173.41;5039844;28;20655;-86
2022/03/04 10:18:26;;;;;;;14.25;6.00;;;;;;;2.01;100.00;102182.78;5033518;28;20052;-84
2022/03/04 10:20:54;;;;;;;10.25;4.95;;;;;;;2.74;100.00;102185.47;5048455;28;20032;-84
2022/03/04 10:23:23;;;;;;;8.07;4.07;;;;;;;2.85;100.00;102177.00;5039951;28;20154;-86
2022/03/04 10:25:54;;;;;;;9.90;4.38;;;;;;;2.82;100.00;102174.50;5052884;28;20040;-86
2022/03/04 10:28:24;;;;;;;10.38;4.45;;;;;;;3.64;100.00;102171.97;5055050;28;20032;-86
2022/03/04 10:30:51;;;;;;;8.98;4.22;;;;;;;4.04;100.00;102163.66;5053700;28;20062;-87
2022/03/04 10:33:26;;;;;;;9.15;4.22;;;;;;;5.64;100.00;102155.94;5036789;28;20017;-86
2022/03/04 10:36:08;;;;;;;9.43;4.13;;;;;;;6.30;99.23;102119.94;5053219;28;20037;-86
2022/03/04 10:38:35;;;;;;;7.65;2.83;;;;;;;3.67;94.78;102023.03;5036259;28;20036;-86
2022/03/04 10:41:00;;;;;;;9.55;4.25;;;;;;;3.47;95.08;102027.66;5053729;28;20409;-86
2022/03/04 10:43:34;;;;;;;7.57;3.53;;;;;;;4.00;96.25;102057.25;5071395;28;20038;-87
2022/03/04 10:46:02;;;;;;;10.43;4.05;;;;;;;4.62;95.33;102068.59;5036419;28;20094;-87
2022/03/04 10:48:29;;;;;;;9.93;4.28;;;;;;;5.23;92.33;102041.97;5036738;28;20039;-88
2022/03/04 10:50:58;;;;;;;7.45;3.88;;;;;;;5.37;89.76;102004.03;5069773;28;20033;-87
2022/03/04 10:53:28;;;;;;;9.88;3.60;;;;;;;4.81;89.14;101990.78;5053159;28;20079;-87
2022/03/04 10:55:59;;;;;;;7.00;3.40;;;;;;;5.55;87.92;102004.63;5053609;28;20089;-87
2022/03/04 10:58:28;;;;;;;6.03;2.78;;;;;;;6.93;85.27;101998.88;5053114;28;20045;-87
2022/03/04 11:01:08;;;;;;;9.05;4.28;;;;;;;7.41;81.46;101918.41;5052973;28;20392;-89
2022/03/04 11:03:34;;;;;;;5.45;2.92;;;;;;;7.77;77.66;101829.75;5036374;28;20105;-88